Elwood, Utah
Current Conditions -  °F | °C
As of 5:51 PM on Monday 24 Nov 2014 (Local Time) from KLGU Reporting Station
Clear Clear  
Wind Chill: 32°   Ceiling: Unl
Heat Index: 32°   Visibility: 10mi
Dew Point: 22°   Wind: 3mph
Humidity: 66%   Direction: 230°SW
Pressure: 30.4"   Gusts: NA
Location:  41.6836°N, 112.26°W
Report Text: KLGU 250051Z AUTO 23003KT 10SM CLR 00/M06 A3040 RMK AO2 SLP309 T00001056
Loading
Personal Weather Stations






























Interactive Weather Map New forecast layout! Learn more

10-Day Weather Forecast

Advertisements
Track Severe Weather on mobile